sensor_id;sensor_type;location;lat;lon;timestamp;temperature;humidity
38902;DHT22;24661;53.566;9.910;2023-02-01T00:00:10;5.40;99.90
38902;DHT22;24661;53.566;9.910;2023-02-01T00:02:37;5.40;99.90
38902;DHT22;24661;53.566;9.910;2023-02-01T00:05:05;5.40;99.90
38902;DHT22;24661;53.566;9.910;2023-02-01T00:07:31;5.40;99.90
38902;DHT22;24661;53.566;9.910;2023-02-01T00:09:57;5.50;99.90
38902;DHT22;24661;53.566;9.910;2023-02-01T00:12:23;5.50;99.90
38902;DHT22;24661;53.566;9.910;2023-02-01T00:14:48;5.50;99.90
38902;DHT22;24661;53.566;9.910;2023-02-01T00:17:14;5.50;99.90
38902;DHT22;24661;53.566;9.910;2023-02-01T00:19:39;5.50;99.90
38902;DHT22;24661;53.566;9.910;2023-02-01T00:22:05;5.60;99.90
38902;DHT22;24661;53.566;9.910;2023-02-01T00:24:31;5.60;99.90
38902;DHT22;24661;53.566;9.910;2023-02-01T00:26:56;5.60;99.90
38902;DHT22;24661;53.566;9.910;2023-02-01T00:29:22;5.60;99.90
38902;DHT22;24661;53.566;9.910;2023-02-01T00:31:52;5.60;99.90
38902;DHT22;24661;53.566;9.910;2023-02-01T00:34:19;5.60;99.90
38902;DHT22;24661;53.566;9.910;2023-02-01T00:36:46;5.60;99.90
38902;DHT22;24661;53.566;9.910;2023-02-01T00:39:11;5.60;99.90
38902;DHT22;24661;53.566;9.910;2023-02-01T00:41:37;5.60;99.90
38902;DHT22;24661;53.566;9.910;2023-02-01T00:44:03;5.70;99.90
38902;DHT22;24661;53.566;9.910;2023-02-01T00:46:29;5.70;99.90
38902;DHT22;24661;53.566;9.910;2023-02-01T00:48:56;5.70;99.90
38902;DHT22;24661;53.566;9.910;2023-02-01T00:51:25;5.70;99.90
38902;DHT22;24661;53.566;9.910;2023-02-01T00:53:51;5.80;99.90
38902;DHT22;24661;53.566;9.910;2023-02-01T00:56:17;5.80;99.90
38902;DHT22;24661;53.566;9.910;2023-02-01T00:58:43;5.80;99.90
38902;DHT22;24661;53.566;9.910;2023-02-01T01:01:13;5.80;99.90
38902;DHT22;24661;53.566;9.910;2023-02-01T01:03:42;5.80;99.90
38902;DHT22;24661;53.566;9.910;2023-02-01T01:06:14;5.80;99.90
38902;DHT22;24661;53.566;9.910;2023-02-01T01:08:41;5.80;99.90
38902;DHT22;24661;53.566;9.910;2023-02-01T01:11:12;5.80;99.90
38902;DHT22;24661;53.566;9.910;2023-02-01T01:13:38;5.90;99.90
38902;DHT22;24661;53.566;9.910;2023-02-01T01:16:06;5.90;99.90
38902;DHT22;24661;53.566;9.910;2023-02-01T01:18:33;5.90;99.90
38902;DHT22;24661;53.566;9.910;2023-02-01T01:20:59;5.90;99.90
38902;DHT22;24661;53.566;9.910;2023-02-01T01:23:25;5.90;99.90
38902;DHT22;24661;53.566;9.910;2023-02-01T01:25:51;5.90;99.90
38902;DHT22;24661;53.566;9.910;2023-02-01T01:28:16;5.90;99.90
38902;DHT22;24661;53.566;9.910;2023-02-01T01:30:42;5.90;99.90
38902;DHT22;24661;53.566;9.910;2023-02-01T01:33:08;5.90;99.90
38902;DHT22;24661;53.566;9.910;2023-02-01T01:35:34;5.90;99.90
38902;DHT22;24661;53.566;9.910;2023-02-01T01:38:00;5.90;99.90
38902;DHT22;24661;53.566;9.910;2023-02-01T01:40:27;5.90;99.90
38902;DHT22;24661;53.566;9.910;2023-02-01T01:42:53;5.90;99.90
38902;DHT22;24661;53.566;9.910;2023-02-01T01:47:52;5.90;99.90
38902;DHT22;24661;53.566;9.910;2023-02-01T01:50:23;5.90;99.90
38902;DHT22;24661;53.566;9.910;2023-02-01T01:52:51;6.00;99.90
38902;DHT22;24661;53.566;9.910;2023-02-01T01:55:20;6.00;99.90
38902;DHT22;24661;53.566;9.910;2023-02-01T01:57:51;6.00;99.90
38902;DHT22;24661;53.566;9.910;2023-02-01T02:00:20;6.00;99.90
38902;DHT22;24661;53.566;9.910;2023-02-01T02:02:48;5.90;99.90
38902;DHT22;24661;53.566;9.910;2023-02-01T02:05:18;5.90;99.90
38902;DHT22;24661;53.566;9.910;2023-02-01T02:07:46;6.00;99.90
38902;DHT22;24661;53.566;9.910;2023-02-01T02:10:15;5.90;99.90
38902;DHT22;24661;53.566;9.910;2023-02-01T02:12:42;5.90;99.90
38902;DHT22;24661;53.566;9.910;2023-02-01T02:15:10;5.90;99.90
38902;DHT22;24661;53.566;9.910;2023-02-01T02:18:05;5.90;99.90
38902;DHT22;24661;53.566;9.910;2023-02-01T02:26:23;5.90;99.90
38902;DHT22;24661;53.566;9.910;2023-02-01T02:35:19;5.80;99.90
38902;DHT22;24661;53.566;9.910;2023-02-01T02:37:54;5.70;99.90
38902;DHT22;24661;53.566;9.910;2023-02-01T02:40:32;5.70;99.90
38902;DHT22;24661;53.566;9.910;2023-02-01T02:43:22;5.60;99.90
38902;DHT22;24661;53.566;9.910;2023-02-01T02:46:20;5.60;99.90
38902;DHT22;24661;53.566;9.910;2023-02-01T02:49:15;5.60;99.90
38902;DHT22;24661;53.566;9.910;2023-02-01T02:52:02;5.60;99.90
38902;DHT22;24661;53.566;9.910;2023-02-01T02:54:49;5.60;99.90
38902;DHT22;24661;53.566;9.910;2023-02-01T02:57:43;5.60;99.90
38902;DHT22;24661;53.566;9.910;2023-02-01T03:00:30;5.60;99.90
38902;DHT22;24661;53.566;9.910;2023-02-01T03:03:16;5.70;99.90
38902;DHT22;24661;53.566;9.910;2023-02-01T03:06:00;5.60;99.90
38902;DHT22;24661;53.566;9.910;2023-02-01T03:08:27;5.60;99.90
38902;DHT22;24661;53.566;9.910;2023-02-01T03:11:00;5.40;99.90
38902;DHT22;24661;53.566;9.910;2023-02-01T03:21:31;5.50;99.90
38902;DHT22;24661;53.566;9.910;2023-02-01T03:29:33;5.30;99.90
38902;DHT22;24661;53.566;9.910;2023-02-01T03:32:00;5.20;99.90
38902;DHT22;24661;53.566;9.910;2023-02-01T03:34:26;5.10;99.90
38902;DHT22;24661;53.566;9.910;2023-02-01T03:36:58;5.10;99.90
38902;DHT22;24661;53.566;9.910;2023-02-01T03:39:34;5.00;99.90
38902;DHT22;24661;53.566;9.910;2023-02-01T03:42:21;5.00;99.90
38902;DHT22;24661;53.566;9.910;2023-02-01T03:44:56;5.00;99.90
38902;DHT22;24661;53.566;9.910;2023-02-01T03:47:28;4.90;99.90
38902;DHT22;24661;53.566;9.910;2023-02-01T03:50:03;4.80;99.90
38902;DHT22;24661;53.566;9.910;2023-02-01T03:52:34;6.80;99.90
38902;DHT22;24661;53.566;9.910;2023-02-01T03:55:02;4.80;99.90
38902;DHT22;24661;53.566;9.910;2023-02-01T03:57:32;4.70;99.90
38902;DHT22;24661;53.566;9.910;2023-02-01T04:00:06;4.80;99.90
38902;DHT22;24661;53.566;9.910;2023-02-01T04:02:33;4.80;99.90
38902;DHT22;24661;53.566;9.910;2023-02-01T04:04:59;4.80;99.90
38902;DHT22;24661;53.566;9.910;2023-02-01T04:07:25;4.90;99.90
38902;DHT22;24661;53.566;9.910;2023-02-01T04:09:51;4.90;99.90
38902;DHT22;24661;53.566;9.910;2023-02-01T04:12:16;4.90;99.90
38902;DHT22;24661;53.566;9.910;2023-02-01T04:14:42;4.90;99.90
38902;DHT22;24661;53.566;9.910;2023-02-01T04:17:08;4.90;99.90
38902;DHT22;24661;53.566;9.910;2023-02-01T04:19:33;4.90;99.90
38902;DHT22;24661;53.566;9.910;2023-02-01T04:21:59;5.00;99.90
38902;DHT22;24661;53.566;9.910;2023-02-01T04:24:24;5.00;99.90
38902;DHT22;24661;53.566;9.910;2023-02-01T04:26:50;5.00;99.90
38902;DHT22;24661;53.566;9.910;2023-02-01T04:29:16;5.00;99.90
38902;DHT22;24661;53.566;9.910;2023-02-01T04:31:41;5.00;99.90
38902;DHT22;24661;53.566;9.910;2023-02-01T04:34:08;5.00;99.90
38902;DHT22;24661;53.566;9.910;2023-02-01T04:36:34;5.00;99.90
38902;DHT22;24661;53.566;9.910;2023-02-01T04:38:59;5.00;99.90
38902;DHT22;24661;53.566;9.910;2023-02-01T04:41:25;5.00;99.90
38902;DHT22;24661;53.566;9.910;2023-02-01T04:43:51;4.90;99.90
38902;DHT22;24661;53.566;9.910;2023-02-01T04:46:18;4.90;99.90
38902;DHT22;24661;53.566;9.910;2023-02-01T04:48:43;4.90;99.90
38902;DHT22;24661;53.566;9.910;2023-02-01T04:51:09;4.80;99.90
38902;DHT22;24661;53.566;9.910;2023-02-01T04:53:35;4.70;99.90
38902;DHT22;24661;53.566;9.910;2023-02-01T04:56:01;4.70;99.90
38902;DHT22;24661;53.566;9.910;2023-02-01T04:58:26;4.70;99.90
38902;DHT22;24661;53.566;9.910;2023-02-01T05:00:52;4.70;99.90
38902;DHT22;24661;53.566;9.910;2023-02-01T05:03:18;4.70;99.90
38902;DHT22;24661;53.566;9.910;2023-02-01T05:05:44;4.60;99.90
38902;DHT22;24661;53.566;9.910;2023-02-01T05:08:09;4.40;99.90
38902;DHT22;24661;53.566;9.910;2023-02-01T05:10:35;4.30;99.90
38902;DHT22;24661;53.566;9.910;2023-02-01T05:13:01;4.10;99.90
38902;DHT22;24661;53.566;9.910;2023-02-01T05:15:45;3.80;99.90
38902;DHT22;24661;53.566;9.910;2023-02-01T05:18:12;3.60;99.90
38902;DHT22;24661;53.566;9.910;2023-02-01T05:20:39;3.50;99.90
38902;DHT22;24661;53.566;9.910;2023-02-01T05:23:04;3.40;99.90
38902;DHT22;24661;53.566;9.910;2023-02-01T05:25:31;3.30;99.90
38902;DHT22;24661;53.566;9.910;2023-02-01T05:27:56;3.20;99.90
38902;DHT22;24661;53.566;9.910;2023-02-01T05:30:22;3.20;99.90
38902;DHT22;24661;53.566;9.910;2023-02-01T05:32:52;3.20;99.90
38902;DHT22;24661;53.566;9.910;2023-02-01T05:35:18;3.10;99.90
38902;DHT22;24661;53.566;9.910;2023-02-01T05:37:43;3.10;99.90
38902;DHT22;24661;53.566;9.910;2023-02-01T05:40:10;3.10;99.90
38902;DHT22;24661;53.566;9.910;2023-02-01T05:42:35;3.10;99.90
38902;DHT22;24661;53.566;9.910;2023-02-01T05:45:01;3.10;99.90
38902;DHT22;24661;53.566;9.910;2023-02-01T05:47:27;3.10;99.90
38902;DHT22;24661;53.566;9.910;2023-02-01T05:49:52;3.10;99.90
38902;DHT22;24661;53.566;9.910;2023-02-01T05:52:18;3.10;99.90
38902;DHT22;24661;53.566;9.910;2023-02-01T05:54:45;3.00;99.90
38902;DHT22;24661;53.566;9.910;2023-02-01T05:57:12;3.00;99.90
38902;DHT22;24661;53.566;9.910;2023-02-01T05:59:38;2.90;99.90
38902;DHT22;24661;53.566;9.910;2023-02-01T06:02:09;2.90;99.90
38902;DHT22;24661;53.566;9.910;2023-02-01T06:04:35;2.90;99.90
38902;DHT22;24661;53.566;9.910;2023-02-01T06:07:01;3.00;99.90
38902;DHT22;24661;53.566;9.910;2023-02-01T06:09:26;3.00;99.90
38902;DHT22;24661;53.566;9.910;2023-02-01T06:11:54;3.00;99.90
38902;DHT22;24661;53.566;9.910;2023-02-01T06:14:20;3.10;99.90
38902;DHT22;24661;53.566;9.910;2023-02-01T06:16:46;3.10;99.90
38902;DHT22;24661;53.566;9.910;2023-02-01T06:19:12;3.10;99.90
38902;DHT22;24661;53.566;9.910;2023-02-01T06:21:38;3.20;99.90
38902;DHT22;24661;53.566;9.910;2023-02-01T06:24:04;3.20;99.90
38902;DHT22;24661;53.566;9.910;2023-02-01T06:26:29;3.20;99.90
38902;DHT22;24661;53.566;9.910;2023-02-01T06:28:55;3.30;99.90
38902;DHT22;24661;53.566;9.910;2023-02-01T06:31:21;3.30;99.90
38902;DHT22;24661;53.566;9.910;2023-02-01T06:33:48;3.40;99.90
38902;DHT22;24661;53.566;9.910;2023-02-01T06:36:14;3.40;99.90
38902;DHT22;24661;53.566;9.910;2023-02-01T06:38:41;3.50;99.90
38902;DHT22;24661;53.566;9.910;2023-02-01T06:41:07;3.60;99.90
38902;DHT22;24661;53.566;9.910;2023-02-01T06:43:33;3.60;99.90
38902;DHT22;24661;53.566;9.910;2023-02-01T06:46:06;3.60;99.90
38902;DHT22;24661;53.566;9.910;2023-02-01T06:48:32;3.70;99.90
38902;DHT22;24661;53.566;9.910;2023-02-01T06:50:58;3.70;99.90
38902;DHT22;24661;53.566;9.910;2023-02-01T06:53:24;3.70;99.90
38902;DHT22;24661;53.566;9.910;2023-02-01T06:55:54;3.80;99.90
38902;DHT22;24661;53.566;9.910;2023-02-01T06:58:19;3.80;99.90
38902;DHT22;24661;53.566;9.910;2023-02-01T07:00:45;3.80;99.90
38902;DHT22;24661;53.566;9.910;2023-02-01T07:03:11;3.80;99.90
38902;DHT22;24661;53.566;9.910;2023-02-01T07:05:36;3.80;99.90
38902;DHT22;24661;53.566;9.910;2023-02-01T07:08:02;3.90;99.90
38902;DHT22;24661;53.566;9.910;2023-02-01T07:10:27;3.90;99.90
38902;DHT22;24661;53.566;9.910;2023-02-01T07:12:57;4.00;99.90
38902;DHT22;24661;53.566;9.910;2023-02-01T07:15:23;4.00;99.90
38902;DHT22;24661;53.566;9.910;2023-02-01T07:17:48;4.10;99.90
38902;DHT22;24661;53.566;9.910;2023-02-01T07:20:15;4.20;99.90
38902;DHT22;24661;53.566;9.910;2023-02-01T07:22:41;4.10;99.90
38902;DHT22;24661;53.566;9.910;2023-02-01T07:25:07;4.20;99.90
38902;DHT22;24661;53.566;9.910;2023-02-01T07:27:36;4.30;99.90
38902;DHT22;24661;53.566;9.910;2023-02-01T07:30:03;4.30;99.90
38902;DHT22;24661;53.566;9.910;2023-02-01T07:32:29;4.50;99.90
38902;DHT22;24661;53.566;9.910;2023-02-01T07:34:56;4.50;99.90
38902;DHT22;24661;53.566;9.910;2023-02-01T07:37:21;4.50;99.90
38902;DHT22;24661;53.566;9.910;2023-02-01T07:39:47;4.60;99.90
38902;DHT22;24661;53.566;9.910;2023-02-01T07:42:12;4.70;99.90
38902;DHT22;24661;53.566;9.910;2023-02-01T07:44:38;4.70;99.90
38902;DHT22;24661;53.566;9.910;2023-02-01T07:47:04;4.80;99.90
38902;DHT22;24661;53.566;9.910;2023-02-01T07:49:29;4.80;99.90
38902;DHT22;24661;53.566;9.910;2023-02-01T07:51:55;4.90;99.90
38902;DHT22;24661;53.566;9.910;2023-02-01T07:54:21;4.90;99.90
38902;DHT22;24661;53.566;9.910;2023-02-01T07:56:46;4.90;99.90
38902;DHT22;24661;53.566;9.910;2023-02-01T07:59:12;5.00;99.90
38902;DHT22;24661;53.566;9.910;2023-02-01T08:01:37;5.00;99.90
38902;DHT22;24661;53.566;9.910;2023-02-01T08:04:03;5.00;99.90
38902;DHT22;24661;53.566;9.910;2023-02-01T08:06:32;5.00;99.90
38902;DHT22;24661;53.566;9.910;2023-02-01T08:08:59;5.00;99.90
38902;DHT22;24661;53.566;9.910;2023-02-01T08:11:25;5.00;99.90
38902;DHT22;24661;53.566;9.910;2023-02-01T08:13:51;5.00;99.90
38902;DHT22;24661;53.566;9.910;2023-02-01T08:16:18;5.10;99.90
38902;DHT22;24661;53.566;9.910;2023-02-01T08:18:45;5.10;99.90
38902;DHT22;24661;53.566;9.910;2023-02-01T08:21:12;5.10;99.90
38902;DHT22;24661;53.566;9.910;2023-02-01T08:23:40;5.20;99.90
38902;DHT22;24661;53.566;9.910;2023-02-01T08:28:45;5.30;99.90
38902;DHT22;24661;53.566;9.910;2023-02-01T08:31:14;5.50;99.90
38902;DHT22;24661;53.566;9.910;2023-02-01T08:33:40;5.60;99.90
38902;DHT22;24661;53.566;9.910;2023-02-01T08:36:08;5.70;99.90
38902;DHT22;24661;53.566;9.910;2023-02-01T08:38:38;5.60;99.90
38902;DHT22;24661;53.566;9.910;2023-02-01T08:41:09;5.60;99.90
38902;DHT22;24661;53.566;9.910;2023-02-01T08:43:35;5.60;99.90
38902;DHT22;24661;53.566;9.910;2023-02-01T08:46:02;5.60;99.90
38902;DHT22;24661;53.566;9.910;2023-02-01T08:48:27;5.60;99.90
38902;DHT22;24661;53.566;9.910;2023-02-01T08:50:53;5.60;99.90
38902;DHT22;24661;53.566;9.910;2023-02-01T08:53:19;5.60;99.90
38902;DHT22;24661;53.566;9.910;2023-02-01T08:55:46;5.60;99.90
38902;DHT22;24661;53.566;9.910;2023-02-01T08:58:12;5.50;99.90
38902;DHT22;24661;53.566;9.910;2023-02-01T09:00:40;5.60;99.90
38902;DHT22;24661;53.566;9.910;2023-02-01T09:03:05;5.60;99.90
38902;DHT22;24661;53.566;9.910;2023-02-01T09:05:31;5.70;99.90
38902;DHT22;24661;53.566;9.910;2023-02-01T09:07:57;5.80;99.90
38902;DHT22;24661;53.566;9.910;2023-02-01T09:10:23;5.90;99.90
38902;DHT22;24661;53.566;9.910;2023-02-01T09:12:48;5.90;99.90
38902;DHT22;24661;53.566;9.910;2023-02-01T09:15:14;6.00;99.90
38902;DHT22;24661;53.566;9.910;2023-02-01T09:17:40;5.90;99.90
38902;DHT22;24661;53.566;9.910;2023-02-01T09:20:08;6.00;99.90
38902;DHT22;24661;53.566;9.910;2023-02-01T09:22:34;6.00;99.90
38902;DHT22;24661;53.566;9.910;2023-02-01T09:24:59;6.00;99.90
38902;DHT22;24661;53.566;9.910;2023-02-01T09:27:25;6.00;99.90
38902;DHT22;24661;53.566;9.910;2023-02-01T09:29:50;6.00;99.90
38902;DHT22;24661;53.566;9.910;2023-02-01T09:32:20;5.90;99.90
38902;DHT22;24661;53.566;9.910;2023-02-01T09:34:45;6.00;99.90
38902;DHT22;24661;53.566;9.910;2023-02-01T09:37:11;6.00;99.90
38902;DHT22;24661;53.566;9.910;2023-02-01T09:39:37;6.10;99.90
38902;DHT22;24661;53.566;9.910;2023-02-01T09:44:54;6.10;99.90
38902;DHT22;24661;53.566;9.910;2023-02-01T09:47:24;6.20;99.90
38902;DHT22;24661;53.566;9.910;2023-02-01T09:52:31;6.40;99.90
38902;DHT22;24661;53.566;9.910;2023-02-01T09:55:04;6.40;99.90
38902;DHT22;24661;53.566;9.910;2023-02-01T09:57:41;6.50;99.90
38902;DHT22;24661;53.566;9.910;2023-02-01T10:00:27;6.50;99.90
38902;DHT22;24661;53.566;9.910;2023-02-01T10:02:54;6.50;99.90
38902;DHT22;24661;53.566;9.910;2023-02-01T10:08:31;6.60;99.90
38902;DHT22;24661;53.566;9.910;2023-02-01T10:20:04;6.50;99.90
38902;DHT22;24661;53.566;9.910;2023-02-01T10:25:17;6.50;99.90
38902;DHT22;24661;53.566;9.910;2023-02-01T10:27:45;8.60;99.90
38902;DHT22;24661;53.566;9.910;2023-02-01T10:30:25;6.40;99.90
38902;DHT22;24661;53.566;9.910;2023-02-01T10:33:17;6.40;99.90
38902;DHT22;24661;53.566;9.910;2023-02-01T10:35:46;6.40;99.90
38902;DHT22;24661;53.566;9.910;2023-02-01T10:38:27;6.30;99.90
38902;DHT22;24661;53.566;9.910;2023-02-01T10:41:01;6.20;99.90
38902;DHT22;24661;53.566;9.910;2023-02-01T10:43:27;6.20;99.90
38902;DHT22;24661;53.566;9.910;2023-02-01T10:45:53;6.10;99.90
38902;DHT22;24661;53.566;9.910;2023-02-01T10:48:18;6.10;99.90
38902;DHT22;24661;53.566;9.910;2023-02-01T10:53:42;6.10;99.90
38902;DHT22;24661;53.566;9.910;2023-02-01T10:56:10;6.00;99.90
38902;DHT22;24661;53.566;9.910;2023-02-01T10:58:45;4.80;99.90
38902;DHT22;24661;53.566;9.910;2023-02-01T11:01:21;6.00;99.90
38902;DHT22;24661;53.566;9.910;2023-02-01T11:03:58;6.00;99.90
38902;DHT22;24661;53.566;9.910;2023-02-01T11:06:28;6.00;99.90
38902;DHT22;24661;53.566;9.910;2023-02-01T11:08:57;6.00;99.90
38902;DHT22;24661;53.566;9.910;2023-02-01T11:11:24;6.10;99.90
38902;DHT22;24661;53.566;9.910;2023-02-01T11:16:20;6.20;99.90
38902;DHT22;24661;53.566;9.910;2023-02-01T11:18:53;6.30;99.90
38902;DHT22;24661;53.566;9.910;2023-02-01T11:21:20;6.40;99.90
38902;DHT22;24661;53.566;9.910;2023-02-01T11:23:47;6.20;99.90
38902;DHT22;24661;53.566;9.910;2023-02-01T11:26:25;6.20;99.90
38902;DHT22;24661;53.566;9.910;2023-02-01T11:28:58;6.30;99.90
38902;DHT22;24661;53.566;9.910;2023-02-01T11:31:26;6.30;99.90
38902;DHT22;24661;53.566;9.910;2023-02-01T11:33:57;6.30;99.90
38902;DHT22;24661;53.566;9.910;2023-02-01T11:36:27;6.30;99.90
38902;DHT22;24661;53.566;9.910;2023-02-01T11:42:04;6.40;99.90
38902;DHT22;24661;53.566;9.910;2023-02-01T11:44:42;6.30;99.90
38902;DHT22;24661;53.566;9.910;2023-02-01T11:47:28;6.30;99.90
38902;DHT22;24661;53.566;9.910;2023-02-01T11:49:58;6.30;99.90
38902;DHT22;24661;53.566;9.910;2023-02-01T11:55:30;6.20;99.90
38902;DHT22;24661;53.566;9.910;2023-02-01T12:06:28;5.60;99.90
38902;DHT22;24661;53.566;9.910;2023-02-01T12:09:02;5.50;99.90
38902;DHT22;24661;53.566;9.910;2023-02-01T12:11:46;5.70;99.90
38902;DHT22;24661;53.566;9.910;2023-02-01T12:28:24;5.30;99.90
38902;DHT22;24661;53.566;9.910;2023-02-01T12:36:36;5.10;99.90
38902;DHT22;24661;53.566;9.910;2023-02-01T12:42:03;4.90;99.90
38902;DHT22;24661;53.566;9.910;2023-02-01T12:44:53;4.80;99.90
38902;DHT22;24661;53.566;9.910;2023-02-01T12:47:37;4.70;99.90
38902;DHT22;24661;53.566;9.910;2023-02-01T12:50:13;4.60;99.90
38902;DHT22;24661;53.566;9.910;2023-02-01T12:52:50;4.50;99.90
38902;DHT22;24661;53.566;9.910;2023-02-01T12:55:36;4.50;99.90
38902;DHT22;24661;53.566;9.910;2023-02-01T13:01:41;4.50;99.90
38902;DHT22;24661;53.566;9.910;2023-02-01T13:15:16;4.40;99.90
38902;DHT22;24661;53.566;9.910;2023-02-01T13:17:44;4.50;99.90
38902;DHT22;24661;53.566;9.910;2023-02-01T13:20:22;4.60;99.90
38902;DHT22;24661;53.566;9.910;2023-02-01T13:23:03;4.60;99.90
38902;DHT22;24661;53.566;9.910;2023-02-01T13:25:51;4.60;99.90
38902;DHT22;24661;53.566;9.910;2023-02-01T13:39:15;4.60;99.90
38902;DHT22;24661;53.566;9.910;2023-02-01T13:42:14;4.60;99.90
38902;DHT22;24661;53.566;9.910;2023-02-01T13:44:48;4.70;99.90
38902;DHT22;24661;53.566;9.910;2023-02-01T13:47:33;4.70;99.90
38902;DHT22;24661;53.566;9.910;2023-02-01T13:50:39;4.70;99.90
38902;DHT22;24661;53.566;9.910;2023-02-01T13:56:03;4.70;99.90
38902;DHT22;24661;53.566;9.910;2023-02-01T13:58:36;4.80;99.90
38902;DHT22;24661;53.566;9.910;2023-02-01T14:03:57;5.00;99.90
38902;DHT22;24661;53.566;9.910;2023-02-01T14:16:41;5.70;99.90
38902;DHT22;24661;53.566;9.910;2023-02-01T14:19:22;5.80;99.90
38902;DHT22;24661;53.566;9.910;2023-02-01T14:24:34;5.90;99.90
38902;DHT22;24661;53.566;9.910;2023-02-01T14:32:39;5.90;99.90
38902;DHT22;24661;53.566;9.910;2023-02-01T14:35:24;6.40;99.90
38902;DHT22;24661;53.566;9.910;2023-02-01T14:38:00;5.20;99.90
38902;DHT22;24661;53.566;9.910;2023-02-01T14:40:29;5.00;99.90
38902;DHT22;24661;53.566;9.910;2023-02-01T14:43:03;4.70;99.90
38902;DHT22;24661;53.566;9.910;2023-02-01T14:53:32;4.30;99.90
38902;DHT22;24661;53.566;9.910;2023-02-01T15:01:25;4.40;99.90
38902;DHT22;24661;53.566;9.910;2023-02-01T15:04:10;4.40;99.90
38902;DHT22;24661;53.566;9.910;2023-02-01T15:06:57;4.50;99.90
38902;DHT22;24661;53.566;9.910;2023-02-01T15:09:30;4.40;99.90
38902;DHT22;24661;53.566;9.910;2023-02-01T15:14:27;4.60;99.90
38902;DHT22;24661;53.566;9.910;2023-02-01T15:16:53;4.60;99.90
38902;DHT22;24661;53.566;9.910;2023-02-01T15:19:24;4.50;99.90
38902;DHT22;24661;53.566;9.910;2023-02-01T15:21:54;4.50;99.90
38902;DHT22;24661;53.566;9.910;2023-02-01T15:26:45;4.50;99.90
38902;DHT22;24661;53.566;9.910;2023-02-01T15:29:12;4.40;99.90
38902;DHT22;24661;53.566;9.910;2023-02-01T15:31:44;4.40;99.90
38902;DHT22;24661;53.566;9.910;2023-02-01T15:34:11;4.30;99.90
38902;DHT22;24661;53.566;9.910;2023-02-01T15:36:37;4.30;99.90
38902;DHT22;24661;53.566;9.910;2023-02-01T15:39:26;4.30;99.90
38902;DHT22;24661;53.566;9.910;2023-02-01T15:44:48;4.30;99.90
38902;DHT22;24661;53.566;9.910;2023-02-01T15:47:21;4.30;99.90
38902;DHT22;24661;53.566;9.910;2023-02-01T15:49:53;4.40;99.90
38902;DHT22;24661;53.566;9.910;2023-02-01T15:54:56;4.40;99.90
38902;DHT22;24661;53.566;9.910;2023-02-01T15:57:27;4.50;99.90
38902;DHT22;24661;53.566;9.910;2023-02-01T15:59:58;4.50;99.90
38902;DHT22;24661;53.566;9.910;2023-02-01T16:05:00;4.50;99.90
38902;DHT22;24661;53.566;9.910;2023-02-01T16:07:32;4.50;99.90
38902;DHT22;24661;53.566;9.910;2023-02-01T16:10:01;4.50;99.90
38902;DHT22;24661;53.566;9.910;2023-02-01T16:12:46;4.50;99.90
38902;DHT22;24661;53.566;9.910;2023-02-01T16:15:12;4.50;99.90
38902;DHT22;24661;53.566;9.910;2023-02-01T16:17:38;4.50;99.90
38902;DHT22;24661;53.566;9.910;2023-02-01T16:20:04;4.50;99.90
38902;DHT22;24661;53.566;9.910;2023-02-01T16:22:30;4.50;99.90
38902;DHT22;24661;53.566;9.910;2023-02-01T16:24:56;4.50;99.90
38902;DHT22;24661;53.566;9.910;2023-02-01T16:27:22;4.60;99.90
38902;DHT22;24661;53.566;9.910;2023-02-01T16:29:48;4.60;99.90
38902;DHT22;24661;53.566;9.910;2023-02-01T16:32:20;4.60;99.90
38902;DHT22;24661;53.566;9.910;2023-02-01T16:34:47;4.70;99.90
38902;DHT22;24661;53.566;9.910;2023-02-01T16:37:16;4.70;99.90
38902;DHT22;24661;53.566;9.910;2023-02-01T16:39:42;4.80;99.90
38902;DHT22;24661;53.566;9.910;2023-02-01T16:42:12;4.80;99.90
38902;DHT22;24661;53.566;9.910;2023-02-01T16:44:38;4.90;99.90
38902;DHT22;24661;53.566;9.910;2023-02-01T16:47:12;4.90;99.90
38902;DHT22;24661;53.566;9.910;2023-02-01T16:49:41;4.90;99.90
38902;DHT22;24661;53.566;9.910;2023-02-01T16:52:19;4.90;99.90
38902;DHT22;24661;53.566;9.910;2023-02-01T16:54:46;4.90;99.90
38902;DHT22;24661;53.566;9.910;2023-02-01T16:57:15;4.90;99.90
38902;DHT22;24661;53.566;9.910;2023-02-01T16:59:43;5.00;99.90
38902;DHT22;24661;53.566;9.910;2023-02-01T17:02:15;5.20;99.90
38902;DHT22;24661;53.566;9.910;2023-02-01T17:04:42;4.30;99.90
38902;DHT22;24661;53.566;9.910;2023-02-01T17:07:18;6.70;99.90
38902;DHT22;24661;53.566;9.910;2023-02-01T17:09:44;5.30;99.90
38902;DHT22;24661;53.566;9.910;2023-02-01T17:12:22;5.30;99.90
38902;DHT22;24661;53.566;9.910;2023-02-01T17:14:48;5.40;99.90
38902;DHT22;24661;53.566;9.910;2023-02-01T17:17:19;5.40;99.90
38902;DHT22;24661;53.566;9.910;2023-02-01T17:19:48;5.40;99.90
38902;DHT22;24661;53.566;9.910;2023-02-01T17:22:17;5.40;99.90
38902;DHT22;24661;53.566;9.910;2023-02-01T17:24:43;5.50;99.90
38902;DHT22;24661;53.566;9.910;2023-02-01T17:27:09;5.50;99.90
38902;DHT22;24661;53.566;9.910;2023-02-01T17:29:35;5.50;99.90
38902;DHT22;24661;53.566;9.910;2023-02-01T17:32:02;5.50;99.90
38902;DHT22;24661;53.566;9.910;2023-02-01T17:34:28;5.50;99.90
38902;DHT22;24661;53.566;9.910;2023-02-01T17:36:54;5.50;99.90
38902;DHT22;24661;53.566;9.910;2023-02-01T17:39:20;5.60;99.90
38902;DHT22;24661;53.566;9.910;2023-02-01T17:42:07;5.60;99.90
38902;DHT22;24661;53.566;9.910;2023-02-01T17:44:33;5.50;99.90
38902;DHT22;24661;53.566;9.910;2023-02-01T17:46:59;5.60;99.90
38902;DHT22;24661;53.566;9.910;2023-02-01T17:49:25;5.60;99.90
38902;DHT22;24661;53.566;9.910;2023-02-01T17:51:53;5.60;99.90
38902;DHT22;24661;53.566;9.910;2023-02-01T17:54:19;5.60;99.90
38902;DHT22;24661;53.566;9.910;2023-02-01T17:56:45;5.60;99.90
38902;DHT22;24661;53.566;9.910;2023-02-01T17:59:13;5.50;99.90
38902;DHT22;24661;53.566;9.910;2023-02-01T18:01:40;5.50;99.90
38902;DHT22;24661;53.566;9.910;2023-02-01T18:04:08;5.50;99.90
38902;DHT22;24661;53.566;9.910;2023-02-01T18:06:36;5.50;99.90
38902;DHT22;24661;53.566;9.910;2023-02-01T18:09:13;5.50;99.90
38902;DHT22;24661;53.566;9.910;2023-02-01T18:11:41;5.50;99.90
38902;DHT22;24661;53.566;9.910;2023-02-01T18:14:11;5.50;99.90
38902;DHT22;24661;53.566;9.910;2023-02-01T18:16:40;5.60;99.90
38902;DHT22;24661;53.566;9.910;2023-02-01T18:19:09;5.60;99.90
38902;DHT22;24661;53.566;9.910;2023-02-01T18:21:43;5.60;99.90
38902;DHT22;24661;53.566;9.910;2023-02-01T18:24:13;5.60;99.90
38902;DHT22;24661;53.566;9.910;2023-02-01T18:26:44;5.60;99.90
38902;DHT22;24661;53.566;9.910;2023-02-01T18:29:13;5.50;99.90
38902;DHT22;24661;53.566;9.910;2023-02-01T18:31:51;5.50;99.90
38902;DHT22;24661;53.566;9.910;2023-02-01T18:34:18;6.00;99.90
38902;DHT22;24661;53.566;9.910;2023-02-01T18:36:49;5.40;99.90
38902;DHT22;24661;53.566;9.910;2023-02-01T18:39:16;5.50;99.90
38902;DHT22;24661;53.566;9.910;2023-02-01T18:41:47;5.50;99.90
38902;DHT22;24661;53.566;9.910;2023-02-01T18:44:15;5.50;99.90
38902;DHT22;24661;53.566;9.910;2023-02-01T18:46:41;5.50;99.90
38902;DHT22;24661;53.566;9.910;2023-02-01T18:49:07;5.50;99.90